Prospect, Kentucky
Current Conditions -  °F | °C
As of 2:53 AM on Thursday 29 Jan 2015 (Local Time) from KLOU Reporting Station
Clear Clear  
Wind Chill: 33°   Ceiling: Unl
Heat Index: 37°   Visibility: 10mi
Dew Point: 18°   Wind: 5mph
Humidity: 46%   Direction: 150°SSE
Pressure: 30.04"   Gusts: NA
Location:  38.35°N, 85.62°W
Report Text: KLOU 290753Z AUTO 15004KT 10SM CLR 03/M08 A3004 RMK AO2 SLP176 T00281078
Loading
Personal Weather Stations






























Interactive Weather Map New forecast layout! Learn more

10-Day Weather Forecast

Advertisements
Track Severe Weather on mobile